createdAt,value
2022-07-26T00:00:20.086Z,63.48
2022-07-26T00:01:20.122Z,63.39
2022-07-26T00:02:20.107Z,63.48
2022-07-26T00:03:20.046Z,62.98
2022-07-26T00:04:20.031Z,62.78
2022-07-26T00:05:20.031Z,62.68
2022-07-26T00:06:20.017Z,62.58
2022-07-26T00:07:19.998Z,62.48
2022-07-26T00:08:19.991Z,62.48
2022-07-26T00:09:19.988Z,62.38
2022-07-26T00:10:19.986Z,62.18
2022-07-26T00:11:19.977Z,62.18
2022-07-26T00:12:19.952Z,61.58
2022-07-26T00:13:19.938Z,61.48
2022-07-26T00:14:19.908Z,61.08
2022-07-26T00:15:19.924Z,61.05
2022-07-26T00:16:20.011Z,60.85
2022-07-26T00:17:19.950Z,60.75
2022-07-26T00:18:19.874Z,60.55
2022-07-26T00:19:19.862Z,60.45
2022-07-26T00:20:19.863Z,60.35
2022-07-26T00:21:19.850Z,60.35
2022-07-26T00:22:19.837Z,60.05
2022-07-26T00:23:19.815Z,60.05
2022-07-26T00:24:19.867Z,59.85
2022-07-26T00:25:19.821Z,60.05
2022-07-26T00:26:19.788Z,59.85
2022-07-26T00:27:19.784Z,59.75
2022-07-26T00:28:19.792Z,59.95
2022-07-26T00:29:19.760Z,59.75
2022-07-26T00:30:19.760Z,59.75
2022-07-26T00:31:19.785Z,59.65
2022-07-26T00:32:19.719Z,59.25
2022-07-26T00:33:19.708Z,58.95
2022-07-26T00:34:19.751Z,58.95
2022-07-26T00:35:19.692Z,58.65
2022-07-26T00:36:19.709Z,58.65
2022-07-26T00:37:20.602Z,58.55
2022-07-26T00:38:19.652Z,58.25
2022-07-26T00:39:19.654Z,58.15
2022-07-26T00:40:19.641Z,58.15
2022-07-26T00:41:19.624Z,58.35
2022-07-26T00:42:19.610Z,58.35
2022-07-26T00:43:19.613Z,58.05
2022-07-26T00:44:19.582Z,57.95
2022-07-26T00:45:19.575Z,57.95
2022-07-26T00:46:19.658Z,58.05
2022-07-26T00:47:20.514Z,58.25
2022-07-26T00:48:19.545Z,58.05
2022-07-26T00:49:19.643Z,57.85
2022-07-26T00:50:19.532Z,57.85
2022-07-26T00:51:19.503Z,57.85
2022-07-26T00:52:19.489Z,58.05
2022-07-26T00:53:19.491Z,57.95
2022-07-26T00:54:19.487Z,57.95
2022-07-26T00:55:19.474Z,58.05
2022-07-26T00:56:19.447Z,58.05
2022-07-26T00:57:19.437Z,57.95
2022-07-26T00:58:19.427Z,57.85
2022-07-26T00:59:19.455Z,58.05
2022-07-26T01:00:19.398Z,57.95
2022-07-26T01:01:19.461Z,58.05
2022-07-26T01:02:19.442Z,57.92
2022-07-26T01:03:19.370Z,57.85
2022-07-26T01:04:19.361Z,57.62
2022-07-26T01:05:19.360Z,57.52
2022-07-26T01:06:21.789Z,57.62
2022-07-26T01:07:19.321Z,57.42
2022-07-26T01:08:19.320Z,57.22
2022-07-26T01:09:19.315Z,57.62
2022-07-26T01:10:19.318Z,57.22
2022-07-26T01:11:19.282Z,57.52
2022-07-26T01:12:19.275Z,57.12
2022-07-26T01:13:19.398Z,57.12
2022-07-26T01:14:19.243Z,57.02
2022-07-26T01:15:19.266Z,57.22
2022-07-26T01:16:19.306Z,57.15
2022-07-26T01:17:19.212Z,57.55
2022-07-26T01:18:19.213Z,57.65
2022-07-26T01:19:19.194Z,57.65
2022-07-26T01:20:19.182Z,57.55
2022-07-26T01:21:19.185Z,57.75
2022-07-26T01:22:19.169Z,57.55
2022-07-26T01:23:19.154Z,57.75
2022-07-26T01:24:19.147Z,57.75
2022-07-26T01:25:19.138Z,57.95
2022-07-26T01:26:19.129Z,57.65
2022-07-26T01:27:19.107Z,57.85
2022-07-26T01:28:19.809Z,57.85
2022-07-26T01:29:19.079Z,57.75
2022-07-26T01:30:19.102Z,57.65
2022-07-26T01:31:19.173Z,57.65
2022-07-26T01:32:19.051Z,57.65
2022-07-26T01:33:19.059Z,57.75
2022-07-26T01:34:19.023Z,57.75
2022-07-26T01:35:19.022Z,57.75
2022-07-26T01:36:18.997Z,57.75
2022-07-26T01:37:19.004Z,57.75
2022-07-26T01:38:18.996Z,57.55
2022-07-26T01:39:18.976Z,57.52
2022-07-26T01:40:18.967Z,57.82
2022-07-26T01:41:22.783Z,57.75
2022-07-26T01:42:19.946Z,57.62
2022-07-26T01:43:18.928Z,57.82
2022-07-26T01:44:18.905Z,57.82
2022-07-26T01:45:18.907Z,57.82
2022-07-26T01:46:18.950Z,57.82
2022-07-26T01:47:18.880Z,57.82
2022-07-26T01:48:18.901Z,57.92
2022-07-26T01:49:18.942Z,57.72
2022-07-26T01:50:18.866Z,58.02
2022-07-26T01:51:18.848Z,58.02
2022-07-26T01:52:18.861Z,57.72
2022-07-26T01:53:18.832Z,57.92
2022-07-26T01:54:22.271Z,57.62
2022-07-26T01:55:19.801Z,57.82
2022-07-26T01:56:18.791Z,57.72
2022-07-26T01:57:18.772Z,57.62
2022-07-26T01:58:18.771Z,57.72
2022-07-26T01:59:18.743Z,58.02
2022-07-26T02:00:18.733Z,58.02
2022-07-26T02:01:38.435Z,58.02
2022-07-26T02:02:19.900Z,57.92
2022-07-26T02:03:18.795Z,57.72
2022-07-26T02:04:18.693Z,58.02
2022-07-26T02:05:18.707Z,57.95
2022-07-26T02:06:18.666Z,58.35
2022-07-26T02:07:18.673Z,58.45
2022-07-26T02:08:18.678Z,58.35
2022-07-26T02:09:18.638Z,58.25
2022-07-26T02:10:18.627Z,58.65
2022-07-26T02:11:18.627Z,58.55
2022-07-26T02:12:18.613Z,58.65
2022-07-26T02:13:18.598Z,58.65
2022-07-26T02:14:25.454Z,58.65
2022-07-26T02:15:19.582Z,58.55
2022-07-26T02:16:18.590Z,58.75
2022-07-26T02:17:18.553Z,59.15
2022-07-26T02:18:18.558Z,59.15
2022-07-26T02:19:18.531Z,59.15
2022-07-26T02:20:18.543Z,59.15
2022-07-26T02:21:18.501Z,59.45
2022-07-26T02:22:18.499Z,59.75
2022-07-26T02:23:18.488Z,59.55
2022-07-26T02:24:18.472Z,59.75
2022-07-26T02:25:19.419Z,59.55
2022-07-26T02:26:18.439Z,59.65
2022-07-26T02:27:18.443Z,59.75
2022-07-26T02:28:18.421Z,59.65
2022-07-26T02:29:18.415Z,59.75
2022-07-26T02:30:18.426Z,59.75
2022-07-26T02:31:18.445Z,59.98
2022-07-26T02:32:18.368Z,60.08
2022-07-26T02:33:18.358Z,60.28
2022-07-26T02:34:18.366Z,60.38
2022-07-26T02:35:18.350Z,60.58
2022-07-26T02:36:18.350Z,60.58
2022-07-26T02:37:18.325Z,60.81
2022-07-26T02:38:18.326Z,61.01
2022-07-26T02:39:18.330Z,60.91
2022-07-26T02:40:19.471Z,61.11
2022-07-26T02:41:18.296Z,61.21
2022-07-26T02:42:18.287Z,61.11
2022-07-26T02:43:18.261Z,61.11
2022-07-26T02:44:18.251Z,61.11
2022-07-26T02:45:18.244Z,61.01
2022-07-26T02:46:18.301Z,61.11
2022-07-26T02:47:18.220Z,61.11
2022-07-26T02:48:18.206Z,60.91
2022-07-26T02:49:18.301Z,60.91
2022-07-26T02:50:18.184Z,61.11
2022-07-26T02:51:18.186Z,61.01
2022-07-26T02:52:18.155Z,61.41
2022-07-26T02:53:18.144Z,61.31
2022-07-26T02:54:18.151Z,61.41
2022-07-26T02:55:18.125Z,61.41
2022-07-26T02:56:18.114Z,61.38
2022-07-26T02:57:18.117Z,61.38
2022-07-26T02:58:18.086Z,61.38
2022-07-26T02:59:18.078Z,61.38
2022-07-26T03:00:18.069Z,61.38
2022-07-26T03:01:18.165Z,61.48
2022-07-26T03:02:18.091Z,61.68
2022-07-26T03:03:18.041Z,61.81
2022-07-26T03:04:18.042Z,61.81
2022-07-26T03:05:18.020Z,61.71
2022-07-26T03:06:18.002Z,61.71
2022-07-26T03:07:17.991Z,61.81
2022-07-26T03:08:18.002Z,62.01
2022-07-26T03:09:17.971Z,62.11
2022-07-26T03:10:17.958Z,62.21
2022-07-26T03:11:17.991Z,62.11
2022-07-26T03:12:17.941Z,62.31
2022-07-26T03:13:17.928Z,62.31
2022-07-26T03:14:17.921Z,62.31
2022-07-26T03:15:17.903Z,62.51
2022-07-26T03:16:22.616Z,62.51
2022-07-26T03:17:17.900Z,62.41
2022-07-26T03:18:17.885Z,62.51
2022-07-26T03:19:17.857Z,62.51
2022-07-26T03:20:17.849Z,62.61
2022-07-26T03:21:17.848Z,62.61
2022-07-26T03:22:17.833Z,62.71
2022-07-26T03:23:17.830Z,62.71
2022-07-26T03:24:17.808Z,62.92
2022-07-26T03:25:17.787Z,62.92
2022-07-26T03:26:17.773Z,63.01
2022-07-26T03:27:17.779Z,62.81
2022-07-26T03:28:19.688Z,62.92
2022-07-26T03:29:18.723Z,62.81
2022-07-26T03:30:24.490Z,63.01
2022-07-26T03:31:18.860Z,63.14
2022-07-26T03:32:17.716Z,63.04
2022-07-26T03:33:17.699Z,63.11
2022-07-26T03:34:18.647Z,63.24
2022-07-26T03:35:17.744Z,63.14
2022-07-26T03:36:17.667Z,63.34
2022-07-26T03:37:17.654Z,63.34
2022-07-26T03:38:17.648Z,63.34
2022-07-26T03:39:17.646Z,63.24
2022-07-26T03:40:17.633Z,63.34
2022-07-26T03:41:18.564Z,63.45
2022-07-26T03:42:17.602Z,63.54
2022-07-26T03:43:22.562Z,63.34
2022-07-26T03:44:18.586Z,63.45
2022-07-26T03:45:17.578Z,63.54
2022-07-26T03:46:17.720Z,63.45
2022-07-26T03:47:17.548Z,63.54
2022-07-26T03:48:17.527Z,63.54
2022-07-26T03:49:17.679Z,63.64
2022-07-26T03:50:17.508Z,63.75
2022-07-26T03:51:17.526Z,63.75
2022-07-26T03:52:17.487Z,63.84
2022-07-26T03:53:18.424Z,64.04
2022-07-26T03:54:17.467Z,64.04
2022-07-26T03:55:17.451Z,63.95
2022-07-26T03:56:17.461Z,64.04
2022-07-26T03:57:17.429Z,64.04
2022-07-26T03:58:17.423Z,64.15
2022-07-26T03:59:17.413Z,64.04
2022-07-26T04:00:17.404Z,64.15
2022-07-26T04:01:17.465Z,64.25
2022-07-26T04:02:17.405Z,64.15
2022-07-26T04:03:17.373Z,64.15
2022-07-26T04:04:17.366Z,64.18
2022-07-26T04:05:21.727Z,64.37
2022-07-26T04:06:18.358Z,64.37
2022-07-26T04:07:17.331Z,64.34
2022-07-26T04:08:17.309Z,64.25
2022-07-26T04:09:17.302Z,64.15
2022-07-26T04:10:17.291Z,64.25
2022-07-26T04:11:17.281Z,64.15
2022-07-26T04:12:17.271Z,64.15
2022-07-26T04:13:17.263Z,64.15
2022-07-26T04:14:17.238Z,64.25
2022-07-26T04:15:17.381Z,64.25
2022-07-26T04:16:17.244Z,64.15
2022-07-26T04:17:17.289Z,64.25
2022-07-26T04:18:17.198Z,64.15
2022-07-26T04:19:17.190Z,64.25
2022-07-26T04:20:17.172Z,63.81
2022-07-26T04:21:17.170Z,62.98
2022-07-26T04:22:17.151Z,61.95
2022-07-26T04:23:17.141Z,61.42
2022-07-26T04:24:17.124Z,61.75
2022-07-26T04:25:17.112Z,62.05
2022-07-26T04:26:17.123Z,62.18
2022-07-26T04:27:17.094Z,61.75
2022-07-26T04:28:17.098Z,61.55
2022-07-26T04:29:17.076Z,61.12
2022-07-26T04:30:17.088Z,59.34
2022-07-26T04:31:17.210Z,56.51
2022-07-26T04:32:17.056Z,53.51
2022-07-26T04:33:17.045Z,51.35
2022-07-26T04:34:17.018Z,50.51
2022-07-26T04:35:17.006Z,49.27
2022-07-26T04:36:17.012Z,48.23
2022-07-26T04:37:16.985Z,47.09
2022-07-26T04:38:16.980Z,45.96
2022-07-26T04:39:16.968Z,45.15
2022-07-26T04:40:16.952Z,44.73
2022-07-26T04:41:16.950Z,44.75
2022-07-26T04:42:16.926Z,44.64
2022-07-26T04:43:16.928Z,44.64
2022-07-26T04:44:16.901Z,43.92
2022-07-26T04:45:16.900Z,43.51
2022-07-26T04:46:16.953Z,43.41
2022-07-26T04:47:16.887Z,43.41
2022-07-26T04:48:16.884Z,43.51
2022-07-26T04:49:16.879Z,43.21
2022-07-26T04:50:16.835Z,43.31
2022-07-26T04:51:16.854Z,43.41
2022-07-26T04:52:16.825Z,43.41
2022-07-26T04:53:16.817Z,43.73
2022-07-26T04:54:16.810Z,44.36
2022-07-26T04:55:16.800Z,44.75
2022-07-26T04:56:16.825Z,44.34
2022-07-26T04:57:16.770Z,44.43
2022-07-26T04:58:16.759Z,44.54
2022-07-26T04:59:21.563Z,44.54
2022-07-26T05:00:21.809Z,45.49
2022-07-26T05:01:18.772Z,47.24
2022-07-26T05:02:16.841Z,49.54
2022-07-26T05:03:16.800Z,52.00
2022-07-26T05:04:16.697Z,52.09
2022-07-26T05:05:16.695Z,52.51
2022-07-26T05:06:16.685Z,52.91
2022-07-26T05:07:16.665Z,53.31
2022-07-26T05:08:16.656Z,53.64
2022-07-26T05:09:16.679Z,54.06
2022-07-26T05:10:16.659Z,54.36
2022-07-26T05:11:16.625Z,54.16
2022-07-26T05:12:16.628Z,54.36
2022-07-26T05:13:16.611Z,54.56
2022-07-26T05:14:17.626Z,54.68
2022-07-26T05:15:16.605Z,54.98
2022-07-26T05:16:16.590Z,55.08
2022-07-26T05:17:17.827Z,55.28
2022-07-26T05:18:16.557Z,55.38
2022-07-26T05:19:16.558Z,55.58
2022-07-26T05:20:16.538Z,55.71
2022-07-26T05:21:16.520Z,55.71
2022-07-26T05:22:16.519Z,56.10
2022-07-26T05:23:16.506Z,55.80
2022-07-26T05:24:16.499Z,56.01
2022-07-26T05:25:16.505Z,56.43
2022-07-26T05:26:16.473Z,56.83
2022-07-26T05:27:16.459Z,57.13
2022-07-26T05:28:16.466Z,58.55
2022-07-26T05:29:16.442Z,59.08
2022-07-26T05:30:16.451Z,58.68
2022-07-26T05:31:17.894Z,58.36
2022-07-26T05:32:16.395Z,58.36
2022-07-26T05:33:16.843Z,58.28
2022-07-26T05:34:16.402Z,57.98
2022-07-26T05:35:16.378Z,58.28
2022-07-26T05:36:16.368Z,57.76
2022-07-26T05:37:16.345Z,58.08
2022-07-26T05:38:16.351Z,58.38
2022-07-26T05:39:16.355Z,58.28
2022-07-26T05:40:16.331Z,58.28
2022-07-26T05:41:16.302Z,58.48
2022-07-26T05:42:16.298Z,58.38
2022-07-26T05:43:16.270Z,58.41
2022-07-26T05:44:16.296Z,58.51
2022-07-26T05:45:16.282Z,58.94
2022-07-26T05:46:16.363Z,59.23
2022-07-26T05:47:16.233Z,59.14
2022-07-26T05:48:16.230Z,59.34
2022-07-26T05:49:16.223Z,59.64
2022-07-26T05:50:16.224Z,59.74
2022-07-26T05:51:16.219Z,59.86
2022-07-26T05:52:16.186Z,60.06
2022-07-26T05:53:16.165Z,60.16
2022-07-26T05:54:16.170Z,60.29
2022-07-26T05:55:17.164Z,60.59
2022-07-26T05:56:16.142Z,60.79
2022-07-26T05:57:16.128Z,60.69
2022-07-26T05:58:16.113Z,60.89
2022-07-26T05:59:16.108Z,60.59
2022-07-26T06:00:16.109Z,60.59
2022-07-26T06:01:16.082Z,60.99
2022-07-26T06:02:16.115Z,60.89
2022-07-26T06:03:16.068Z,61.19
2022-07-26T06:04:16.089Z,60.89
2022-07-26T06:05:16.094Z,61.09
2022-07-26T06:06:16.032Z,61.29
2022-07-26T06:07:16.038Z,61.09
2022-07-26T06:08:16.010Z,61.09
2022-07-26T06:09:15.984Z,60.99
2022-07-26T06:10:15.995Z,61.29
2022-07-26T06:11:15.977Z,61.19
2022-07-26T06:12:15.975Z,60.96
2022-07-26T06:13:15.960Z,60.57
2022-07-26T06:14:15.959Z,60.57
2022-07-26T06:15:16.148Z,60.66
2022-07-26T06:16:15.938Z,60.06
2022-07-26T06:17:15.979Z,59.86
2022-07-26T06:18:15.899Z,59.86
2022-07-26T06:19:15.891Z,59.66
2022-07-26T06:20:15.891Z,59.86
2022-07-26T06:21:15.856Z,60.06
2022-07-26T06:22:15.869Z,59.64
2022-07-26T06:23:15.834Z,59.64
2022-07-26T06:24:15.839Z,59.44
2022-07-26T06:25:15.821Z,59.44
2022-07-26T06:26:15.809Z,59.56
2022-07-26T06:27:15.807Z,59.56
2022-07-26T06:28:16.750Z,59.36
2022-07-26T06:29:15.769Z,59.66
2022-07-26T06:30:15.763Z,59.77
2022-07-26T06:31:15.797Z,59.56
2022-07-26T06:32:15.822Z,59.86
2022-07-26T06:33:15.744Z,59.66
2022-07-26T06:34:15.716Z,60.19
2022-07-26T06:35:15.704Z,60.49
2022-07-26T06:36:15.696Z,60.69
2022-07-26T06:37:15.673Z,60.39
2022-07-26T06:38:15.693Z,60.59
2022-07-26T06:39:16.626Z,60.59
2022-07-26T06:40:15.656Z,60.69
2022-07-26T06:41:15.642Z,60.92
2022-07-26T06:42:15.675Z,60.92
2022-07-26T06:43:15.631Z,61.22
2022-07-26T06:44:16.566Z,61.42
2022-07-26T06:45:15.601Z,61.55
2022-07-26T06:46:15.605Z,61.62
2022-07-26T06:47:15.558Z,61.52
2022-07-26T06:48:15.588Z,61.42
2022-07-26T06:49:19.388Z,61.42
2022-07-26T06:50:16.551Z,61.22
2022-07-26T06:51:15.539Z,61.22
2022-07-26T06:52:15.540Z,61.32
2022-07-26T06:53:15.506Z,61.12
2022-07-26T06:54:16.441Z,61.42
2022-07-26T06:55:15.482Z,61.32
2022-07-26T06:56:15.471Z,61.29
2022-07-26T06:57:15.486Z,61.19
2022-07-26T06:58:15.447Z,61.19
2022-07-26T06:59:15.445Z,60.99
2022-07-26T07:00:16.384Z,61.09
2022-07-26T07:01:58.776Z,61.19
2022-07-26T07:02:16.505Z,61.19
2022-07-26T07:03:15.406Z,61.19
2022-07-26T07:04:15.375Z,60.99
2022-07-26T07:05:15.483Z,61.09
2022-07-26T07:06:15.373Z,61.49
2022-07-26T07:07:15.356Z,61.59
2022-07-26T07:08:15.351Z,61.49
2022-07-26T07:09:15.360Z,61.40
2022-07-26T07:10:15.322Z,61.16
2022-07-26T07:11:15.302Z,61.07
2022-07-26T07:12:15.318Z,60.93
2022-07-26T07:13:15.279Z,60.83
2022-07-26T07:14:15.279Z,60.93
2022-07-26T07:15:15.266Z,61.66
2022-07-26T07:16:15.269Z,62.29
2022-07-26T07:17:19.938Z,62.82
2022-07-26T07:18:16.224Z,63.22
2022-07-26T07:19:15.215Z,63.32
2022-07-26T07:20:15.223Z,63.82
2022-07-26T07:21:15.197Z,63.95
2022-07-26T07:22:15.193Z,63.82
2022-07-26T07:23:15.181Z,63.82
2022-07-26T07:24:15.154Z,63.62
2022-07-26T07:25:15.166Z,63.32
2022-07-26T07:26:15.132Z,63.39
2022-07-26T07:27:15.136Z,63.39
2022-07-26T07:28:15.121Z,62.99
2022-07-26T07:29:15.095Z,62.86
2022-07-26T07:30:15.097Z,62.46
2022-07-26T07:31:15.149Z,62.26
2022-07-26T07:32:15.960Z,62.13
2022-07-26T07:33:22.926Z,61.83
2022-07-26T07:34:16.047Z,61.73
2022-07-26T07:35:15.031Z,61.83
2022-07-26T07:36:15.067Z,62.56
2022-07-26T07:37:15.019Z,63.19
2022-07-26T07:38:15.002Z,63.49
2022-07-26T07:39:17.539Z,63.92
2022-07-26T07:40:14.981Z,64.03
2022-07-26T07:41:14.967Z,64.03
2022-07-26T07:42:15.001Z,64.12
2022-07-26T07:43:14.947Z,64.12
2022-07-26T07:44:14.925Z,64.32
2022-07-26T07:45:15.003Z,64.32
2022-07-26T07:46:14.960Z,64.52
2022-07-26T07:47:15.089Z,64.95
2022-07-26T07:48:14.889Z,65.25
2022-07-26T07:49:14.960Z,65.89
2022-07-26T07:50:14.895Z,66.32
2022-07-26T07:51:14.873Z,66.49
2022-07-26T07:52:14.864Z,66.52
2022-07-26T07:53:14.836Z,66.82
2022-07-26T07:54:14.847Z,66.72
2022-07-26T07:55:40.648Z,66.49
2022-07-26T07:56:15.799Z,66.59
2022-07-26T07:57:14.823Z,66.39
2022-07-26T07:58:14.786Z,66.39
2022-07-26T07:59:14.767Z,66.28
2022-07-26T08:00:14.783Z,65.95
2022-07-26T08:01:14.822Z,65.66
2022-07-26T08:02:14.730Z,65.22
2022-07-26T08:03:18.659Z,64.92
2022-07-26T08:04:14.788Z,64.69
2022-07-26T08:05:15.331Z,64.49
2022-07-26T08:06:14.701Z,64.29
2022-07-26T08:07:14.682Z,64.19
2022-07-26T08:08:14.665Z,64.19
2022-07-26T08:09:14.675Z,64.29
2022-07-26T08:10:14.652Z,64.09
2022-07-26T08:11:14.636Z,64.00
2022-07-26T08:12:14.698Z,64.03
2022-07-26T08:13:14.620Z,64.42
2022-07-26T08:14:14.609Z,64.42
2022-07-26T08:15:14.626Z,64.42
2022-07-26T08:16:14.726Z,64.32
2022-07-26T08:17:14.598Z,64.19
2022-07-26T08:18:14.570Z,64.09
2022-07-26T08:19:15.647Z,64.00
2022-07-26T08:20:15.980Z,63.89
2022-07-26T08:21:14.543Z,63.79
2022-07-26T08:22:14.536Z,63.79
2022-07-26T08:23:14.504Z,64.00
2022-07-26T08:24:14.498Z,64.09
2022-07-26T08:25:14.480Z,64.00
2022-07-26T08:26:14.469Z,63.89
2022-07-26T08:27:14.475Z,63.79
2022-07-26T08:28:37.352Z,63.59
2022-07-26T08:29:15.696Z,63.36
2022-07-26T08:30:14.424Z,63.06
2022-07-26T08:31:14.508Z,63.06
2022-07-26T08:32:14.404Z,62.66
2022-07-26T08:33:14.415Z,62.43
2022-07-26T08:34:14.388Z,62.56
2022-07-26T08:35:19.822Z,62.63
2022-07-26T08:36:15.364Z,62.53
2022-07-26T08:37:17.582Z,62.43
2022-07-26T08:38:14.327Z,62.13
2022-07-26T08:39:14.335Z,61.93
2022-07-26T08:40:14.310Z,61.54
2022-07-26T08:41:14.296Z,61.60
2022-07-26T08:42:14.289Z,61.60
2022-07-26T08:43:14.278Z,61.30
2022-07-26T08:44:14.263Z,61.10
2022-07-26T08:45:14.277Z,60.91
2022-07-26T08:46:14.334Z,61.43
2022-07-26T08:47:14.238Z,61.63
2022-07-26T08:48:17.658Z,62.04
2022-07-26T08:49:14.574Z,62.37
2022-07-26T08:50:14.191Z,62.66
2022-07-26T08:51:14.196Z,63.17
2022-07-26T08:52:14.191Z,62.86
2022-07-26T08:53:14.156Z,62.63
2022-07-26T08:54:14.173Z,62.43
2022-07-26T08:55:14.149Z,61.90
2022-07-26T08:56:14.123Z,61.60
2022-07-26T08:57:14.125Z,61.30
2022-07-26T08:58:14.124Z,61.38
2022-07-26T08:59:19.566Z,61.27
2022-07-26T09:00:15.082Z,61.27
2022-07-26T09:01:14.293Z,60.85
2022-07-26T09:02:14.060Z,60.65
2022-07-26T09:03:14.068Z,60.05
2022-07-26T09:04:29.914Z,59.92
2022-07-26T09:05:15.029Z,60.02
2022-07-26T09:06:14.008Z,60.02
2022-07-26T09:07:14.013Z,59.82
2022-07-26T09:08:13.997Z,59.82
2022-07-26T09:09:14.010Z,59.62
2022-07-26T09:10:13.971Z,58.92
2022-07-26T09:11:13.961Z,58.92
2022-07-26T09:12:13.979Z,58.53
2022-07-26T09:13:13.939Z,58.70
2022-07-26T09:14:13.965Z,58.10
2022-07-26T09:15:13.920Z,58.12
2022-07-26T09:16:13.983Z,58.23
2022-07-26T09:17:13.903Z,58.29
2022-07-26T09:18:13.871Z,58.40
2022-07-26T09:19:13.902Z,58.42
2022-07-26T09:20:13.874Z,58.53
2022-07-26T09:21:13.839Z,58.72
2022-07-26T09:22:13.823Z,59.02
2022-07-26T09:23:13.814Z,58.72
2022-07-26T09:24:13.819Z,57.76
2022-07-26T09:25:13.821Z,57.18
2022-07-26T09:26:13.794Z,57.88
2022-07-26T09:27:13.789Z,58.41
2022-07-26T09:28:13.847Z,58.41
2022-07-26T09:29:14.112Z,58.51
2022-07-26T09:30:13.768Z,58.71
2022-07-26T09:31:13.805Z,59.34
2022-07-26T09:32:15.367Z,60.27
2022-07-26T09:33:13.710Z,60.44
2022-07-26T09:34:13.846Z,59.94
2022-07-26T09:35:45.490Z,59.64
2022-07-26T09:36:14.718Z,59.70
2022-07-26T09:37:13.674Z,59.21
2022-07-26T09:38:14.207Z,59.11
2022-07-26T09:39:13.651Z,59.08
2022-07-26T09:40:13.660Z,59.08
2022-07-26T09:41:13.626Z,58.75
2022-07-26T09:42:29.798Z,58.36
2022-07-26T09:43:15.717Z,58.25
2022-07-26T09:44:15.545Z,58.25
2022-07-26T09:45:13.594Z,58.12
2022-07-26T09:46:13.633Z,57.93
2022-07-26T09:47:13.580Z,58.03
2022-07-26T09:48:13.546Z,57.82
2022-07-26T09:49:14.560Z,57.30
2022-07-26T09:50:13.704Z,56.87
2022-07-26T09:51:13.530Z,56.57
2022-07-26T09:52:13.513Z,56.68
2022-07-26T09:53:13.503Z,56.65
2022-07-26T09:54:15.065Z,56.65
2022-07-26T09:55:13.492Z,56.15
2022-07-26T09:56:13.474Z,56.02
2022-07-26T09:57:14.396Z,55.73
2022-07-26T09:58:13.522Z,55.43
2022-07-26T09:59:13.447Z,55.63
2022-07-26T10:00:13.480Z,55.63
2022-07-26T10:01:13.459Z,55.73
2022-07-26T10:02:14.352Z,55.82
2022-07-26T10:03:13.520Z,56.65
2022-07-26T10:04:13.840Z,56.85
2022-07-26T10:05:13.390Z,56.75
2022-07-26T10:06:13.349Z,56.45
2022-07-26T10:07:13.338Z,56.15
2022-07-26T10:08:13.324Z,56.15
2022-07-26T10:09:13.323Z,55.95
2022-07-26T10:10:13.398Z,55.98
2022-07-26T10:11:13.293Z,56.38
2022-07-26T10:12:13.298Z,56.38
2022-07-26T10:13:13.286Z,56.57
2022-07-26T10:14:13.492Z,56.68
2022-07-26T10:15:13.245Z,56.90
2022-07-26T10:16:13.281Z,57.20
2022-07-26T10:17:14.235Z,57.10
2022-07-26T10:18:16.775Z,57.10
2022-07-26T10:19:14.219Z,56.60
2022-07-26T10:20:17.366Z,56.81
2022-07-26T10:21:14.336Z,57.23
2022-07-26T10:22:13.181Z,57.33
2022-07-26T10:23:13.166Z,57.56
2022-07-26T10:24:13.581Z,57.76
2022-07-26T10:25:13.146Z,57.56
2022-07-26T10:26:13.144Z,57.35
2022-07-26T10:27:13.137Z,56.85
2022-07-26T10:28:13.105Z,56.56
2022-07-26T10:29:13.129Z,57.15
2022-07-26T10:30:13.074Z,57.35
2022-07-26T10:31:13.130Z,57.15
2022-07-26T10:32:13.057Z,57.46
2022-07-26T10:33:13.058Z,57.46
2022-07-26T10:34:13.516Z,57.46
2022-07-26T10:35:13.060Z,57.56
2022-07-26T10:36:13.021Z,57.35
2022-07-26T10:37:13.009Z,57.33
2022-07-26T10:38:12.994Z,57.33
2022-07-26T10:39:13.271Z,57.73
2022-07-26T10:40:12.991Z,57.63
2022-07-26T10:41:12.961Z,57.00
2022-07-26T10:42:12.960Z,56.60
2022-07-26T10:43:38.885Z,56.30
2022-07-26T10:44:13.927Z,56.93
2022-07-26T10:45:12.919Z,57.53
2022-07-26T10:46:12.976Z,57.76
2022-07-26T10:47:12.905Z,57.56
2022-07-26T10:48:13.029Z,57.76
2022-07-26T10:49:12.943Z,58.15
2022-07-26T10:50:12.862Z,58.15
2022-07-26T10:51:12.842Z,58.15
2022-07-26T10:52:12.856Z,57.86
2022-07-26T10:53:12.839Z,57.56
2022-07-26T10:54:13.517Z,57.43
2022-07-26T10:55:12.824Z,56.85
2022-07-26T10:56:12.809Z,56.16
2022-07-26T10:57:12.785Z,55.46
2022-07-26T10:58:12.771Z,55.46
2022-07-26T10:59:12.769Z,55.16
2022-07-26T11:00:12.751Z,55.56
2022-07-26T11:01:12.843Z,55.46
2022-07-26T11:02:12.737Z,54.86
2022-07-26T11:03:15.031Z,54.34
2022-07-26T11:04:13.254Z,54.14
2022-07-26T11:05:12.711Z,54.14
2022-07-26T11:06:12.685Z,54.34
2022-07-26T11:07:12.684Z,54.14
2022-07-26T11:08:12.704Z,54.01
2022-07-26T11:09:12.684Z,53.91
2022-07-26T11:10:12.648Z,53.61
2022-07-26T11:11:12.624Z,53.39
2022-07-26T11:12:12.615Z,53.31
2022-07-26T11:13:12.623Z,53.81
2022-07-26T11:14:13.116Z,54.41
2022-07-26T11:15:12.595Z,54.51
2022-07-26T11:16:12.649Z,54.21
2022-07-26T11:17:12.593Z,53.89
2022-07-26T11:18:13.508Z,53.66
2022-07-26T11:19:12.541Z,53.46
2022-07-26T11:20:12.531Z,52.97
2022-07-26T11:21:12.549Z,53.06
2022-07-26T11:22:12.504Z,52.74
2022-07-26T11:23:12.503Z,51.72
2022-07-26T11:24:13.872Z,51.52
2022-07-26T11:25:12.501Z,51.30
2022-07-26T11:26:12.467Z,51.30
2022-07-26T11:27:12.462Z,51.00
2022-07-26T11:28:12.440Z,50.90
2022-07-26T11:29:17.242Z,50.90
2022-07-26T11:30:15.384Z,51.00
2022-07-26T11:31:12.482Z,51.10
2022-07-26T11:32:18.057Z,51.30
2022-07-26T11:33:13.398Z,51.50
2022-07-26T11:34:13.693Z,51.60
2022-07-26T11:35:12.363Z,51.40
2022-07-26T11:36:12.368Z,51.30
2022-07-26T11:37:12.350Z,51.89
2022-07-26T11:38:12.627Z,51.77
2022-07-26T11:39:12.325Z,51.28
2022-07-26T11:40:12.307Z,51.05
2022-07-26T11:41:12.313Z,51.15
2022-07-26T11:42:12.290Z,51.75
2022-07-26T11:43:12.307Z,51.67
2022-07-26T11:44:12.604Z,51.65
2022-07-26T11:45:12.253Z,52.26
2022-07-26T11:46:12.290Z,52.07
2022-07-26T11:47:12.262Z,51.07
2022-07-26T11:48:12.275Z,51.00
2022-07-26T11:49:12.284Z,51.00
2022-07-26T11:50:18.658Z,51.32
2022-07-26T11:51:13.199Z,52.04
2022-07-26T11:52:12.225Z,53.96
2022-07-26T11:53:12.242Z,55.80
2022-07-26T11:54:12.566Z,56.73
2022-07-26T11:55:12.149Z,57.43
2022-07-26T11:56:12.131Z,57.76
2022-07-26T11:57:12.124Z,58.48
2022-07-26T11:58:12.131Z,59.21
2022-07-26T11:59:12.114Z,59.83
2022-07-26T12:00:12.095Z,60.24
2022-07-26T12:01:12.092Z,60.77
2022-07-26T12:02:14.039Z,60.86
2022-07-26T12:03:12.096Z,61.07
2022-07-26T12:04:12.608Z,61.07
2022-07-26T12:05:12.173Z,60.86
2022-07-26T12:06:12.016Z,61.46
2022-07-26T12:07:12.038Z,61.59
2022-07-26T12:08:11.995Z,61.79
2022-07-26T12:09:12.001Z,61.69
2022-07-26T12:10:11.979Z,61.79
2022-07-26T12:11:11.992Z,61.69
2022-07-26T12:12:11.947Z,61.26
2022-07-26T12:13:11.979Z,60.96
2022-07-26T12:14:16.503Z,61.36
2022-07-26T12:15:12.942Z,61.36
2022-07-26T12:16:11.956Z,61.16
2022-07-26T12:17:11.921Z,61.16
2022-07-26T12:18:11.911Z,60.89
2022-07-26T12:19:11.893Z,61.29
2022-07-26T12:20:11.893Z,61.09
2022-07-26T12:21:11.981Z,60.99
2022-07-26T12:22:12.063Z,60.89
2022-07-26T12:23:11.849Z,61.09
2022-07-26T12:24:12.175Z,61.40
2022-07-26T12:25:11.841Z,61.59
2022-07-26T12:26:11.889Z,62.12
2022-07-26T12:27:11.850Z,62.42
2022-07-26T12:28:11.793Z,62.42
2022-07-26T12:29:11.768Z,61.32
2022-07-26T12:30:11.780Z,61.19
2022-07-26T12:31:11.817Z,61.52
2022-07-26T12:32:12.784Z,61.92
2022-07-26T12:33:11.724Z,61.95
2022-07-26T12:34:12.138Z,62.25
2022-07-26T12:35:11.711Z,62.35
2022-07-26T12:36:11.719Z,62.22
2022-07-26T12:37:11.696Z,62.12
2022-07-26T12:38:11.688Z,61.59
2022-07-26T12:39:11.671Z,61.49
2022-07-26T12:40:11.651Z,61.09
2022-07-26T12:41:13.741Z,60.96
2022-07-26T12:42:11.648Z,60.66
2022-07-26T12:43:11.636Z,60.74
2022-07-26T12:44:12.604Z,59.91
2022-07-26T12:45:11.621Z,59.31
2022-07-26T12:46:12.002Z,58.91
2022-07-26T12:47:11.590Z,59.11
2022-07-26T12:48:11.560Z,58.71
2022-07-26T12:49:11.595Z,58.84
2022-07-26T12:50:11.623Z,59.56
2022-07-26T12:51:12.088Z,59.97
2022-07-26T12:52:11.516Z,59.44